CheckWX is a tool to help pilots better visualize weather data.  It is not intended as a substitute for an official pre-flight weather briefing.

07:20:03 UTC

KADF TAF
Dexter B Florence Memorial Field Airport
Arkadelphia, Arkansas, USA
KADF 041134Z 0412/0512 VRB03KT 2SM BR VCFG SCT003 SCT060 TEMPO 0412/0415 1/2SM FG BKN003 FM041500 07003KT P6SM SCT060 BKN100 FM042100 08006KT P6SM SCT060 OVC100 PROB30 0421/0503 5SM -TSRA BKN050CB FM050300 06005KT P6SM VCSH SCT050 BKN100 PROB30 0503/0509 TS BKN025CB OVC050CB

Jul-4@
12:00 UTC

Jul-4 @ 12:00 UTC

Jul-4@
15:00 UTC

Jul-4 @ 15:00 UTC

TAF KADF 041134Z 0412/0512 VRB03KT 2SM BR VCFG SCT003 SCT060

Expired

Wind
  • Variable at 3 KTS
Conditions
Mist, Area Fog
Cloud Levels
  • Scattered at 300' AGL
  • Scattered at 6,000' AGL

Jul-4@
12:00 UTC

Jul-4 @ 12:00 UTC

Jul-4@
15:00 UTC

Jul-4 @ 15:00 UTC

TEMPO 0412/0415 1/2SM FG BKN003

Expired

Conditions
Fog
Cloud Levels
  • Broken at 300' AGL

Jul-4@
15:00 UTC

Jul-4 @ 15:00 UTC

Jul-4@
21:00 UTC

Jul-4 @ 21:00 UTC

FM041500 07003KT P6SM SCT060 BKN100

Expired

Wind
  • 070° at 3 KTS
Cloud Levels
  • Scattered at 6,000' AGL
  • Broken at 10,000' AGL

Jul-4@
21:00 UTC

Jul-4 @ 21:00 UTC

Jul-5@
03:00 UTC

Jul-5 @ 03:00 UTC

FM042100 08006KT P6SM SCT060 OVC100

Expired

Wind
  • 080° at 6 KTS
Cloud Levels
  • Scattered at 6,000' AGL
  • Overcast at 10,000' AGL

Jul-4@
21:00 UTC

Jul-4 @ 21:00 UTC

Jul-5@
03:00 UTC

Jul-5 @ 03:00 UTC

PROB30 0421/0503 5SM -TSRA BKN050CB

Expired

Conditions
Light Thunderstorm, Rain
Cloud Levels
  • Broken at 5,000' AGL

Jul-5@
03:00 UTC

Jul-5 @ 03:00 UTC

Jul-5@
09:00 UTC

Jul-5 @ 09:00 UTC

PROB30 0503/0509 TS BKN025CB OVC050CB

Probable - 30% Likelihood

Probable - 30% Likelihood during this time.

Conditions
Thunderstorm
Cloud Levels
  • Broken at 2,500' AGL
  • Overcast at 5,000' AGL

Jul-5@
03:00 UTC

Jul-5 @ 03:00 UTC

Jul-5@
12:00 UTC

Jul-5 @ 12:00 UTC

FM050300 06005KT P6SM VCSH SCT050 BKN100

From

From Standard forecast or significant change

Wind
  • 060° at 5 KTS
Conditions
Area Showers
Cloud Levels
  • Scattered at 5,000' AGL
  • Broken at 10,000' AGL